Time;durP1;ratioP1;P1;durP2;ratioP2;P2;SDS_P1;SDS_P2;PMS_P1;PMS_P2;Temp;Humidity;BMP_temperature;BMP_pressure;BME280_temperature;BME280_humidity;BME280_pressure;Samples;Min_cycle;Max_cycle;Signal;HPM_P1;HPM_P2
2022/02/04 00:04:17;;;;;;;;;;;19.70;41.20;;;;;;5095434;28;19923;-62
2022/02/04 00:05:47;;;;;;;;;;;19.70;41.30;;;;;;5095217;28;19960;-62
2022/02/04 00:08:37;;;;;;;;;;;19.70;41.20;;;;;;5095104;28;19908;-62
2022/02/04 00:24:39;;;;;;;;;;;19.70;41.20;;;;;;5094890;28;19962;-62
2022/02/04 00:27:10;;;;;;;;;;;19.70;41.30;;;;;;5094837;28;19911;-62
2022/02/04 00:29:47;;;;;;;;;;;19.70;41.30;;;;;;5094884;28;19947;-61
2022/02/04 00:32:13;;;;;;;;;;;19.70;41.20;;;;;;5093464;28;20275;-62
2022/02/04 00:34:48;;;;;;;;;;;19.60;41.30;;;;;;5094562;28;19967;-62
2022/02/04 00:37:26;;;;;;;;;;;19.60;41.20;;;;;;5094877;28;20004;-62
2022/02/04 00:40:00;;;;;;;;;;;19.70;41.30;;;;;;5094668;28;19947;-62
2022/02/04 00:42:27;;;;;;;;;;;19.70;41.30;;;;;;5094645;28;20336;-62
2022/02/04 00:45:01;;;;;;;;;;;19.60;41.30;;;;;;5094563;28;19916;-62
2022/02/04 00:47:30;;;;;;;;;;;19.70;41.30;;;;;;5094806;28;20415;-62
2022/02/04 00:50:08;;;;;;;;;;;19.60;41.30;;;;;;5093210;28;19908;-62
2022/02/04 00:52:50;;;;;;;;;;;19.70;41.30;;;;;;5094356;28;19909;-61
2022/02/04 01:06:18;;;;;;;;;;;19.60;41.30;;;;;;5094580;28;19908;-62
2022/02/04 01:28:04;;;;;;;;;;;19.60;41.30;;;;;;5093864;28;19915;-62
2022/02/04 01:30:33;;;;;;;;;;;19.60;41.30;;;;;;5094012;28;19908;-62
2022/02/04 01:32:58;;;;;;;;;;;19.60;41.30;;;;;;5093629;28;20439;-62
2022/02/04 01:35:24;;;;;;;;;;;19.60;41.30;;;;;;5093698;28;20010;-62
2022/02/04 01:37:49;;;;;;;;;;;19.60;41.40;;;;;;5092416;28;19962;-62
2022/02/04 01:40:15;;;;;;;;;;;19.60;41.40;;;;;;5093646;28;19908;-62
2022/02/04 01:42:40;;;;;;;;;;;19.60;41.30;;;;;;5093609;28;19915;-62
2022/02/04 01:45:06;;;;;;;;;;;19.50;41.30;;;;;;5093902;28;19947;-62
2022/02/04 01:47:31;;;;;;;;;;;19.60;41.40;;;;;;5093615;28;19962;-62
2022/02/04 01:49:57;;;;;;;;;;;19.60;41.40;;;;;;5093544;28;20444;-62
2022/02/04 01:52:22;;;;;;;;;;;19.50;41.40;;;;;;5093575;28;19973;-62
2022/02/04 01:54:48;;;;;;;;;;;19.60;41.40;;;;;;5093453;28;19920;-62
2022/02/04 01:57:13;;;;;;;;;;;19.60;41.40;;;;;;5093468;28;20352;-62
2022/02/04 01:59:39;;;;;;;;;;;19.60;41.40;;;;;;5093388;28;20360;-62
2022/02/04 02:02:05;;;;;;;;;;;19.60;41.40;;;;;;5093172;28;20553;-62
2022/02/04 02:04:31;;;;;;;;;;;19.50;41.30;;;;;;5093349;28;19908;-62
2022/02/04 02:06:59;;;;;;;;;;;19.60;41.40;;;;;;5093335;28;20002;-62
2022/02/04 02:09:37;;;;;;;;;;;19.60;41.40;;;;;;5093390;28;19950;-62
2022/02/04 02:12:06;;;;;;;;;;;19.60;41.30;;;;;;5093379;28;20029;-62
2022/02/04 02:14:33;;;;;;;;;;;19.60;41.40;;;;;;5093447;28;20245;-62
2022/02/04 02:34:02;;;;;;;;;;;19.60;41.40;;;;;;5096963;28;19954;-62
2022/02/04 02:37:11;;;;;;;;;;;19.50;41.30;;;;;;5096918;28;19954;-62
2022/02/04 02:50:42;;;;;;;;;;;19.50;41.30;;;;;;5096864;28;20364;-62
2022/02/04 03:00:14;;;;;;;;;;;19.50;41.30;;;;;;5096537;28;20402;-62
2022/02/04 03:02:40;;;;;;;;;;;19.50;41.40;;;;;;5096563;28;19908;-62
2022/02/04 03:05:05;;;;;;;;;;;19.50;41.30;;;;;;5096450;28;20003;-62
2022/02/04 03:07:31;;;;;;;;;;;19.50;41.40;;;;;;5095075;28;20015;-62
2022/02/04 03:09:56;;;;;;;;;;;19.50;41.40;;;;;;5096395;28;20001;-61
2022/02/04 03:12:22;;;;;;;;;;;19.50;41.40;;;;;;5096395;28;19915;-62
2022/02/04 03:14:47;;;;;;;;;;;19.50;41.40;;;;;;5096222;28;19916;-62
2022/02/04 03:17:14;;;;;;;;;;;19.50;41.40;;;;;;5096124;28;19912;-62
2022/02/04 03:19:44;;;;;;;;;;;19.50;41.40;;;;;;5096357;28;20347;-62
2022/02/04 03:22:12;;;;;;;;;;;19.50;41.40;;;;;;5094881;28;19908;-62
2022/02/04 03:24:40;;;;;;;;;;;19.50;41.40;;;;;;5096065;28;20264;-62
2022/02/04 03:27:09;;;;;;;;;;;19.50;41.40;;;;;;5096098;28;19959;-62
2022/02/04 03:32:21;;;;;;;;;;;19.50;41.40;;;;;;5095988;28;19934;-62
2022/02/04 03:34:46;;;;;;;;;;;19.50;41.40;;;;;;5095820;28;20417;-62
2022/02/04 03:37:12;;;;;;;;;;;19.50;41.40;;;;;;5095832;28;19908;-62
2022/02/04 03:39:38;;;;;;;;;;;19.50;41.40;;;;;;5095809;28;19908;-62
2022/02/04 03:42:03;;;;;;;;;;;19.50;41.40;;;;;;5095996;28;19915;-62
2022/02/04 03:44:29;;;;;;;;;;;19.50;41.40;;;;;;5096048;28;19915;-62
2022/02/04 03:46:55;;;;;;;;;;;19.50;41.40;;;;;;5094408;28;19915;-62
2022/02/04 03:49:20;;;;;;;;;;;19.50;41.40;;;;;;5095577;28;20010;-62
2022/02/04 03:51:46;;;;;;;;;;;19.50;41.40;;;;;;5095681;28;19908;-62
2022/02/04 03:54:11;;;;;;;;;;;19.50;41.40;;;;;;5094202;28;19916;-62
2022/02/04 03:56:37;;;;;;;;;;;19.50;41.40;;;;;;5095477;28;19912;-62
2022/02/04 03:59:02;;;;;;;;;;;19.50;41.40;;;;;;5095674;28;20015;-62
2022/02/04 04:01:27;;;;;;;;;;;19.50;41.40;;;;;;5093957;28;19927;-61
2022/02/04 04:03:53;;;;;;;;;;;19.50;41.40;;;;;;5095443;28;20371;-62
2022/02/04 04:06:19;;;;;;;;;;;19.50;41.40;;;;;;5095344;28;20297;-62
2022/02/04 04:08:44;;;;;;;;;;;19.50;41.40;;;;;;5095216;28;20345;-62
2022/02/04 04:11:12;;;;;;;;;;;19.50;41.40;;;;;;5095205;28;19908;-62
2022/02/04 04:13:38;;;;;;;;;;;19.50;41.40;;;;;;5095058;28;19920;-62
2022/02/04 04:16:03;;;;;;;;;;;19.50;41.40;;;;;;5095124;28;19914;-62
2022/02/04 04:18:29;;;;;;;;;;;19.50;41.40;;;;;;5095158;28;19952;-62
2022/02/04 04:20:54;;;;;;;;;;;19.50;41.40;;;;;;5095005;28;19908;-62
2022/02/04 04:23:20;;;;;;;;;;;19.50;41.40;;;;;;5094965;28;19908;-62
2022/02/04 04:25:45;;;;;;;;;;;19.50;41.40;;;;;;5094852;28;19908;-61
2022/02/04 04:28:11;;;;;;;;;;;19.50;41.40;;;;;;5094892;28;20020;-62
2022/02/04 04:30:37;;;;;;;;;;;19.50;41.40;;;;;;5094878;28;19923;-62
2022/02/04 04:33:02;;;;;;;;;;;19.50;41.40;;;;;;5094706;28;20299;-62
2022/02/04 04:35:28;;;;;;;;;;;19.50;41.40;;;;;;5094662;28;19913;-62
2022/02/04 04:40:49;;;;;;;;;;;19.50;41.40;;;;;;5094231;28;19912;-62
2022/02/04 04:46:24;;;;;;;;;;;19.50;41.40;;;;;;5094859;28;19908;-62
2022/02/04 05:30:03;;;;;;;;;;;19.50;41.20;;;;;;5093851;28;19915;-62
2022/02/04 05:32:28;;;;;;;;;;;19.60;41.20;;;;;;5093617;28;19908;-62
2022/02/04 05:34:54;;;;;;;;;;;19.60;41.10;;;;;;5093662;28;19916;-62
2022/02/04 05:37:21;;;;;;;;;;;19.60;41.10;;;;;;5093768;28;20008;-62
2022/02/04 05:42:20;;;;;;;;;;;19.70;41.10;;;;;;5093640;28;20274;-62
2022/02/04 05:44:53;;;;;;;;;;;19.70;41.10;;;;;;5093574;28;19908;-62
2022/02/04 05:47:20;;;;;;;;;;;19.70;41.10;;;;;;5093393;28;19915;-61
2022/02/04 05:50:00;;;;;;;;;;;19.70;41.10;;;;;;5092496;28;19976;-62
2022/02/04 05:52:29;;;;;;;;;;;19.70;41.00;;;;;;5093412;28;19912;-62
2022/02/04 05:55:13;;;;;;;;;;;19.70;41.00;;;;;;5093654;28;19920;-61
2022/02/04 05:57:56;;;;;;;;;;;19.70;41.00;;;;;;5093516;28;20364;-61
2022/02/04 06:05:23;;;;;;;;;;;19.70;41.00;;;;;;5093288;28;19910;-62
2022/02/04 06:08:24;;;;;;;;;;;19.70;41.00;;;;;;5093417;28;20330;-62
2022/02/04 06:11:06;;;;;;;;;;;19.70;41.00;;;;;;5092255;28;19908;-62
2022/02/04 06:13:54;;;;;;;;;;;19.80;41.10;;;;;;5093188;28;20348;-62
2022/02/04 06:24:32;;;;;;;;;;;19.80;41.00;;;;;;5093167;28;19915;-62
2022/02/04 06:26:57;;;;;;;;;;;19.80;41.00;;;;;;5093209;28;20367;-62
2022/02/04 06:29:23;;;;;;;;;;;19.80;41.00;;;;;;5093149;28;19947;-62
2022/02/04 06:31:48;;;;;;;;;;;19.80;41.00;;;;;;5093129;28;19908;-61
2022/02/04 06:34:14;;;;;;;;;;;19.80;41.00;;;;;;5092916;28;20283;-62
2022/02/04 06:36:39;;;;;;;;;;;19.90;41.00;;;;;;5091805;28;19908;-61
2022/02/04 06:39:05;;;;;;;;;;;19.80;41.00;;;;;;5093015;28;20003;-61
2022/02/04 06:41:30;;;;;;;;;;;19.80;41.00;;;;;;5092820;28;19908;-61
2022/02/04 06:43:56;;;;;;;;;;;19.90;41.00;;;;;;5093024;28;19915;-61
2022/02/04 06:46:21;;;;;;;;;;;19.90;41.00;;;;;;5093223;28;19984;-61
2022/02/04 06:48:48;;;;;;;;;;;19.90;41.00;;;;;;5093072;28;19919;-62
2022/02/04 06:51:15;;;;;;;;;;;19.90;41.00;;;;;;5092908;28;19908;-61
2022/02/04 06:53:40;;;;;;;;;;;19.90;41.00;;;;;;5092575;28;20041;-61
2022/02/04 06:56:06;;;;;;;;;;;19.90;40.90;;;;;;5091411;28;20068;-62
2022/02/04 06:58:31;;;;;;;;;;;19.90;41.00;;;;;;5092867;28;19908;-62
2022/02/04 07:00:57;;;;;;;;;;;19.90;40.90;;;;;;5091306;28;20026;-61
2022/02/04 07:03:22;;;;;;;;;;;19.90;41.00;;;;;;5093196;28;20356;-61
2022/02/04 07:05:55;;;;;;;;;;;19.90;41.00;;;;;;5096274;28;19915;-61
2022/02/04 07:08:30;;;;;;;;;;;19.90;41.00;;;;;;5085014;28;19956;-61
2022/02/04 07:11:10;;;;;;;;;;;19.90;40.90;;;;;;5080202;28;19908;-61
2022/02/04 07:14:03;;;;;;;;;;;19.90;41.00;;;;;;5075671;28;19924;-61
2022/02/04 07:21:51;;;;;;;;;;;19.90;41.00;;;;;;5073681;28;19916;-61
2022/02/04 07:24:17;;;;;;;;;;;19.90;41.00;;;;;;5074085;28;19913;-60
2022/02/04 07:26:42;;;;;;;;;;;19.90;41.00;;;;;;5092132;28;19961;-62
2022/02/04 07:29:08;;;;;;;;;;;20.00;41.00;;;;;;5076666;28;20429;-61
2022/02/04 07:31:37;;;;;;;;;;;20.00;41.10;;;;;;5095635;28;19951;-60
2022/02/04 07:42:22;;;;;;;;;;;20.00;41.10;;;;;;5095478;28;20044;-61
2022/02/04 07:44:48;;;;;;;;;;;20.00;41.10;;;;;;5076774;28;19943;-61
2022/02/04 07:47:13;;;;;;;;;;;20.00;41.10;;;;;;5095118;28;20036;-61
2022/02/04 07:49:39;;;;;;;;;;;20.00;41.10;;;;;;5093823;28;20411;-61
2022/02/04 07:52:04;;;;;;;;;;;20.00;41.10;;;;;;5094848;28;19908;-61
2022/02/04 07:54:29;;;;;;;;;;;20.00;41.10;;;;;;5093475;28;19970;-61
2022/02/04 07:56:56;;;;;;;;;;;20.00;41.00;;;;;;5094419;28;19958;-61
2022/02/04 07:59:22;;;;;;;;;;;20.00;41.10;;;;;;5094675;28;19914;-61
2022/02/04 08:01:47;;;;;;;;;;;20.00;41.10;;;;;;5094951;28;19923;-61
2022/02/04 08:04:20;;;;;;;;;;;20.00;41.10;;;;;;5094976;28;20305;-61
2022/02/04 08:07:00;;;;;;;;;;;20.00;41.00;;;;;;5094976;28;19908;-61
2022/02/04 08:17:28;;;;;;;;;;;20.00;41.00;;;;;;5094102;28;19908;-61
2022/02/04 08:22:43;;;;;;;;;;;20.00;41.00;;;;;;5077490;28;19991;-61
2022/02/04 08:25:21;;;;;;;;;;;20.00;41.00;;;;;;5094071;28;19995;-61
2022/02/04 08:30:56;;;;;;;;;;;20.10;41.00;;;;;;5094525;28;19915;-60
2022/02/04 08:39:04;;;;;;;;;;;20.10;41.00;;;;;;5094494;28;20006;-61
2022/02/04 08:47:12;;;;;;;;;;;20.10;41.10;;;;;;5093483;28;21338;-61
2022/02/04 08:52:30;;;;;;;;;;;20.10;41.10;;;;;;5093913;28;19908;-61
2022/02/04 08:55:09;;;;;;;;;;;20.10;41.10;;;;;;5093354;28;20624;-61
2022/02/04 08:58:00;;;;;;;;;;;20.10;41.00;;;;;;5093420;28;20325;-61
2022/02/04 09:00:39;;;;;;;;;;;20.10;41.00;;;;;;5093136;28;19920;-61
2022/02/04 09:03:14;;;;;;;;;;;20.10;41.10;;;;;;5093367;28;19955;-62
2022/02/04 09:05:43;;;;;;;;;;;20.10;41.10;;;;;;5074927;28;20422;-61
2022/02/04 09:08:26;;;;;;;;;;;20.10;41.20;;;;;;5092808;28;19909;-61
2022/02/04 09:10:52;;;;;;;;;;;20.10;41.20;;;;;;5092936;28;19914;-61
2022/02/04 09:19:01;;;;;;;;;;;20.10;41.30;;;;;;5062268;28;19914;-60
2022/02/04 09:22:42;;;;;;;;;;;20.10;41.30;;;;;;5093472;28;19908;-60
2022/02/04 09:24:22;;;;;;;;;;;20.10;41.20;;;;;;5070904;28;19908;-61
2022/02/04 09:26:48;;;;;;;;;;;20.10;41.20;;;;;;5090732;28;20489;-60
2022/02/04 09:29:14;;;;;;;;;;;20.10;41.20;;;;;;5089275;28;19908;-61
2022/02/04 09:31:40;;;;;;;;;;;20.10;41.20;;;;;;5093124;28;19908;-61
2022/02/04 09:34:06;;;;;;;;;;;20.10;41.30;;;;;;5091534;28;19945;-61
2022/02/04 09:36:32;;;;;;;;;;;20.20;41.40;;;;;;5092966;28;19916;-60
2022/02/04 09:39:00;;;;;;;;;;;20.20;41.30;;;;;;5071936;28;19912;-60
2022/02/04 09:41:26;;;;;;;;;;;20.10;41.40;;;;;;5092004;28;19908;-60
2022/02/04 09:43:52;;;;;;;;;;;20.10;41.40;;;;;;5091366;28;19950;-61
2022/02/04 09:46:18;;;;;;;;;;;20.20;41.40;;;;;;5092244;28;19942;-62
2022/02/04 09:48:48;;;;;;;;;;;20.10;41.40;;;;;;5072640;28;19908;-61
2022/02/04 09:51:17;;;;;;;;;;;20.20;41.40;;;;;;5091115;28;19908;-62
2022/02/04 10:13:15;;;;;;;;;;;20.20;41.40;;;;;;5072667;28;20381;-60
2022/02/04 10:17:58;;;;;;;;;;;20.20;41.40;;;;;;5072865;28;19908;-62
2022/02/04 10:20:24;;;;;;;;;;;20.20;41.40;;;;;;5072897;28;19912;-62
2022/02/04 10:22:49;;;;;;;;;;;20.10;41.40;;;;;;5073057;28;20009;-63
2022/02/04 10:25:16;;;;;;;;;;;20.20;41.40;;;;;;5072797;28;19940;-62
2022/02/04 10:27:44;;;;;;;;;;;20.20;41.40;;;;;;5054730;28;19915;-62
2022/02/04 10:30:14;;;;;;;;;;;20.20;41.40;;;;;;5072964;28;19909;-62
2022/02/04 10:32:40;;;;;;;;;;;20.20;41.30;;;;;;5072625;28;19912;-62
2022/02/04 10:35:18;;;;;;;;;;;20.20;41.30;;;;;;5072408;28;19916;-62
2022/02/04 10:38:04;;;;;;;;;;;20.20;41.20;;;;;;5072612;28;19947;-62
2022/02/04 10:40:43;;;;;;;;;;;20.20;41.30;;;;;;5076542;28;19908;-62
2022/02/04 10:43:43;;;;;;;;;;;20.20;41.20;;;;;;5058337;28;19934;-62
2022/02/04 10:46:15;;;;;;;;;;;20.20;41.20;;;;;;5076056;28;20386;-62
2022/02/04 10:51:56;;;;;;;;;;;20.30;41.20;;;;;;5076556;28;19919;-62
2022/02/04 10:57:09;;;;;;;;;;;20.20;41.20;;;;;;5076470;28;19927;-62
2022/02/04 11:00:00;;;;;;;;;;;20.30;41.20;;;;;;5076130;28;19909;-62
2022/02/04 11:02:38;;;;;;;;;;;20.20;41.30;;;;;;5076067;28;20287;-62
2022/02/04 11:21:58;;;;;;;;;;;20.20;41.30;;;;;;5076279;28;19908;-62
2022/02/04 11:34:59;;;;;;;;;;;20.20;41.30;;;;;;5075770;28;20360;-62
2022/02/04 11:50:22;;;;;;;;;;;20.10;41.30;;;;;;5075340;28;19915;-62
2022/02/04 11:54:59;;;;;;;;;;;20.10;41.40;;;;;;5075565;28;19921;-62
2022/02/04 11:57:26;;;;;;;;;;;20.10;41.40;;;;;;5075089;28;20356;-62
2022/02/04 11:59:57;;;;;;;;;;;20.10;41.30;;;;;;5074854;28;19909;-62
2022/02/04 12:02:26;;;;;;;;;;;20.10;41.40;;;;;;5075321;28;19920;-62
2022/02/04 12:05:03;;;;;;;;;;;20.10;41.40;;;;;;5074948;28;19916;-62
2022/02/04 12:07:36;;;;;;;;;;;20.10;41.40;;;;;;5056894;28;19958;-60
2022/02/04 12:10:20;;;;;;;;;;;20.10;41.40;;;;;;5074735;28;19954;-62
2022/02/04 12:12:56;;;;;;;;;;;20.10;41.40;;;;;;5074755;28;19916;-63
2022/02/04 12:15:27;;;;;;;;;;;20.10;41.40;;;;;;5056828;28;19916;-62
2022/02/04 12:17:53;;;;;;;;;;;20.10;41.30;;;;;;5074426;28;20356;-62
2022/02/04 12:20:38;;;;;;;;;;;20.10;41.40;;;;;;5074543;28;19916;-62
2022/02/04 12:23:04;;;;;;;;;;;20.10;41.40;;;;;;5074579;28;20363;-62
2022/02/04 12:25:49;;;;;;;;;;;20.10;41.40;;;;;;5074895;28;20375;-62
2022/02/04 12:28:34;;;;;;;;;;;20.10;41.30;;;;;;5062516;28;20284;-62
2022/02/04 12:31:04;;;;;;;;;;;20.10;41.30;;;;;;5074419;28;19940;-62
2022/02/04 12:33:31;;;;;;;;;;;20.10;41.30;;;;;;5074183;28;20295;-61
2022/02/04 12:35:57;;;;;;;;;;;20.10;41.40;;;;;;5074271;28;19909;-61
2022/02/04 12:38:22;;;;;;;;;;;20.10;41.30;;;;;;5056473;28;19908;-62
2022/02/04 12:41:00;;;;;;;;;;;20.20;41.30;;;;;;5074129;28;19958;-62
2022/02/04 12:43:25;;;;;;;;;;;20.10;41.30;;;;;;5074233;28;19913;-61
2022/02/04 12:45:51;;;;;;;;;;;20.10;41.30;;;;;;5074142;28;19909;-61
2022/02/04 12:48:18;;;;;;;;;;;20.10;41.30;;;;;;5074073;28;19909;-61
2022/02/04 12:50:50;;;;;;;;;;;20.20;41.30;;;;;;5073901;28;19909;-62
2022/02/04 12:53:23;;;;;;;;;;;20.10;41.30;;;;;;5073813;28;20046;-61
2022/02/04 12:56:02;;;;;;;;;;;20.10;41.30;;;;;;5074076;28;19912;-61
2022/02/04 13:09:51;;;;;;;;;;;20.20;41.20;;;;;;5070049;28;19920;-61
2022/02/04 13:12:18;;;;;;;;;;;20.20;41.20;;;;;;5073537;28;19917;-61
2022/02/04 13:14:44;;;;;;;;;;;20.20;41.20;;;;;;5073455;28;19962;-61
2022/02/04 13:17:10;;;;;;;;;;;20.10;41.20;;;;;;5073452;28;19931;-61
2022/02/04 13:19:35;;;;;;;;;;;20.20;41.20;;;;;;5073424;28;20273;-61
2022/02/04 13:22:01;;;;;;;;;;;20.20;41.20;;;;;;5073390;28;20013;-61
2022/02/04 13:24:26;;;;;;;;;;;20.20;41.20;;;;;;5055378;28;19944;-61
2022/02/04 13:26:52;;;;;;;;;;;20.20;41.20;;;;;;5073403;28;19909;-62
2022/02/04 13:29:23;;;;;;;;;;;20.20;41.20;;;;;;5073329;28;19912;-62
2022/02/04 13:31:49;;;;;;;;;;;20.20;41.20;;;;;;5073248;28;19915;-62
2022/02/04 13:34:14;;;;;;;;;;;20.20;41.20;;;;;;5073378;28;20284;-61
2022/02/04 13:36:52;;;;;;;;;;;20.20;41.20;;;;;;5073350;28;20402;-61
2022/02/04 13:39:26;;;;;;;;;;;20.20;41.20;;;;;;5073611;28;19919;-62
2022/02/04 13:42:08;;;;;;;;;;;20.10;41.20;;;;;;5073368;28;20005;-62
2022/02/04 13:44:44;;;;;;;;;;;20.20;41.10;;;;;;5073479;28;19975;-61
2022/02/04 13:47:22;;;;;;;;;;;20.20;41.10;;;;;;5073245;28;19912;-61
2022/02/04 13:50:17;;;;;;;;;;;20.20;41.10;;;;;;5073243;28;20310;-61
2022/02/04 13:57:51;;;;;;;;;;;20.20;41.10;;;;;;5073269;28;19908;-61
2022/02/04 14:00:26;;;;;;;;;;;20.20;41.10;;;;;;5072916;28;20229;-61
2022/02/04 14:02:55;;;;;;;;;;;20.20;41.10;;;;;;5071661;28;19913;-62
2022/02/04 14:05:30;;;;;;;;;;;20.20;41.00;;;;;;5072930;28;19915;-62
2022/02/04 14:08:07;;;;;;;;;;;20.20;41.10;;;;;;5073037;28;19909;-62
2022/02/04 14:10:42;;;;;;;;;;;20.20;41.10;;;;;;5072775;28;19908;-62
2022/02/04 14:13:09;;;;;;;;;;;20.20;41.10;;;;;;5056588;28;20352;-62
2022/02/04 14:15:36;;;;;;;;;;;20.20;41.10;;;;;;5077198;28;19954;-61
2022/02/04 14:18:07;;;;;;;;;;;20.20;41.10;;;;;;5076786;28;20276;-61
2022/02/04 14:20:34;;;;;;;;;;;20.20;41.10;;;;;;5076983;28;19913;-61
2022/02/04 14:23:00;;;;;;;;;;;20.20;41.00;;;;;;5059065;28;19908;-62
2022/02/04 14:25:26;;;;;;;;;;;20.20;41.00;;;;;;5075572;28;19909;-62
2022/02/04 14:27:55;;;;;;;;;;;20.20;41.00;;;;;;5076724;28;19908;-61
2022/02/04 14:30:26;;;;;;;;;;;20.20;41.00;;;;;;5075531;28;19908;-62
2022/02/04 14:32:58;;;;;;;;;;;20.20;41.00;;;;;;5075487;28;19915;-61
2022/02/04 14:54:15;;;;;;;;;;;20.20;41.00;;;;;;5076626;28;19920;-61
2022/02/04 15:02:00;;;;;;;;;;;20.20;41.10;;;;;;5076008;28;19921;-62
2022/02/04 15:07:04;;;;;;;;;;;20.10;41.10;;;;;;5076139;28;19916;-61
2022/02/04 15:09:31;;;;;;;;;;;20.10;41.00;;;;;;5075928;28;19915;-61
2022/02/04 15:11:56;;;;;;;;;;;20.10;41.10;;;;;;5057996;28;19951;-61
2022/02/04 15:14:22;;;;;;;;;;;20.10;41.10;;;;;;5075736;28;19967;-61
2022/02/04 15:16:47;;;;;;;;;;;20.10;41.10;;;;;;5075963;28;19919;-61
2022/02/04 15:19:13;;;;;;;;;;;20.10;41.10;;;;;;5075824;28;20391;-61
2022/02/04 15:21:42;;;;;;;;;;;20.10;41.10;;;;;;5075754;28;19977;-61
2022/02/04 15:24:10;;;;;;;;;;;20.10;41.10;;;;;;5074995;28;20499;-61
2022/02/04 15:26:35;;;;;;;;;;;20.10;41.10;;;;;;5076026;28;19908;-62
2022/02/04 15:29:13;;;;;;;;;;;20.10;41.00;;;;;;5075802;28;19954;-61
2022/02/04 15:34:07;;;;;;;;;;;20.10;41.10;;;;;;5075773;28;20363;-61
2022/02/04 15:36:38;;;;;;;;;;;20.10;41.10;;;;;;5075304;28;19909;-61
2022/02/04 15:39:06;;;;;;;;;;;20.10;41.00;;;;;;5075400;28;20410;-62
2022/02/04 15:41:33;;;;;;;;;;;20.10;41.10;;;;;;5075258;28;19962;-61
2022/02/04 15:44:03;;;;;;;;;;;20.10;41.00;;;;;;5075420;28;20280;-62
2022/02/04 15:56:47;;;;;;;;;;;20.10;41.10;;;;;;5075285;28;19908;-61
2022/02/04 15:59:56;;;;;;;;;;;20.10;41.10;;;;;;5075042;28;20324;-61
2022/02/04 16:04:46;;;;;;;;;;;20.10;41.10;;;;;;5075347;28;19909;-61
2022/02/04 16:07:13;;;;;;;;;;;20.10;41.10;;;;;;5074913;28;20363;-62
2022/02/04 16:09:39;;;;;;;;;;;20.10;41.10;;;;;;5074915;28;20002;-61
2022/02/04 16:12:10;;;;;;;;;;;20.10;41.00;;;;;;5074795;28;19948;-62
2022/02/04 16:17:32;;;;;;;;;;;20.10;41.10;;;;;;5058631;28;19908;-61
2022/02/04 16:20:14;;;;;;;;;;;20.10;41.10;;;;;;5074696;28;19969;-61
2022/02/04 16:25:56;;;;;;;;;;;20.10;41.10;;;;;;5074881;28;19909;-60
2022/02/04 16:30:50;;;;;;;;;;;20.10;41.10;;;;;;5074761;28;19970;-62
2022/02/04 16:33:15;;;;;;;;;;;20.10;41.10;;;;;;5074563;28;20340;-62
2022/02/04 16:35:41;;;;;;;;;;;20.10;41.10;;;;;;5073873;28;20313;-62
2022/02/04 16:38:09;;;;;;;;;;;20.10;41.10;;;;;;5072521;28;19957;-61
2022/02/04 16:40:41;;;;;;;;;;;20.10;41.10;;;;;;5074217;28;19915;-61
2022/02/04 16:43:07;;;;;;;;;;;20.20;41.10;;;;;;5074284;28;20009;-61
2022/02/04 16:45:32;;;;;;;;;;;20.10;41.10;;;;;;5074146;28;19991;-61
2022/02/04 16:47:58;;;;;;;;;;;20.10;41.20;;;;;;5074109;28;19913;-61
2022/02/04 16:50:24;;;;;;;;;;;20.00;41.30;;;;;;5074178;28;20003;-61
2022/02/04 16:52:50;;;;;;;;;;;20.00;41.30;;;;;;5074067;28;19915;-61
2022/02/04 16:55:19;;;;;;;;;;;20.00;41.30;;;;;;5073913;28;19916;-61
2022/02/04 16:57:46;;;;;;;;;;;20.00;41.40;;;;;;5073724;28;19909;-61
2022/02/04 17:00:25;;;;;;;;;;;20.00;41.40;;;;;;5073694;28;19913;-61
2022/02/04 17:02:56;;;;;;;;;;;20.00;41.40;;;;;;5073790;28;20360;-61
2022/02/04 17:05:24;;;;;;;;;;;20.00;41.40;;;;;;5073692;28;19908;-61
2022/02/04 17:07:55;;;;;;;;;;;20.00;41.40;;;;;;5073763;28;19919;-61
2022/02/04 17:10:28;;;;;;;;;;;20.00;41.40;;;;;;5073688;28;19908;-61
2022/02/04 17:13:01;;;;;;;;;;;20.00;41.40;;;;;;5073760;28;19944;-61
2022/02/04 17:15:30;;;;;;;;;;;19.90;41.40;;;;;;5074007;28;19923;-61
2022/02/04 17:17:56;;;;;;;;;;;20.00;41.40;;;;;;5073554;28;19908;-61
2022/02/04 17:20:22;;;;;;;;;;;19.90;41.40;;;;;;5073554;28;19908;-61
2022/02/04 17:22:48;;;;;;;;;;;20.00;41.40;;;;;;5073588;28;19935;-61
2022/02/04 17:25:14;;;;;;;;;;;20.00;41.40;;;;;;5073541;28;19909;-61
2022/02/04 17:27:40;;;;;;;;;;;19.90;41.40;;;;;;5073567;28;20034;-61
2022/02/04 17:30:07;;;;;;;;;;;19.90;41.40;;;;;;5072092;28;19909;-61
2022/02/04 17:32:33;;;;;;;;;;;19.90;41.40;;;;;;5073502;28;20379;-61
2022/02/04 17:34:58;;;;;;;;;;;19.90;41.40;;;;;;5073438;28;19917;-61
2022/02/04 17:37:25;;;;;;;;;;;19.90;41.40;;;;;;5073294;28;19908;-61
2022/02/04 17:39:53;;;;;;;;;;;19.90;41.40;;;;;;5073236;28;20041;-61
2022/02/04 17:42:22;;;;;;;;;;;19.90;41.40;;;;;;5072942;28;19913;-61
2022/02/04 17:44:49;;;;;;;;;;;19.90;41.40;;;;;;5071994;28;20011;-61
2022/02/04 17:47:16;;;;;;;;;;;19.90;41.40;;;;;;5072972;28;20379;-61
2022/02/04 17:49:51;;;;;;;;;;;19.90;41.40;;;;;;5073273;28;19917;-61
2022/02/04 17:52:24;;;;;;;;;;;19.90;41.30;;;;;;5073126;28;20441;-61
2022/02/04 17:54:59;;;;;;;;;;;19.90;41.30;;;;;;5073030;28;19943;-61
2022/02/04 17:57:33;;;;;;;;;;;19.90;41.30;;;;;;5073141;28;19908;-61
2022/02/04 18:00:31;;;;;;;;;;;19.90;41.30;;;;;;5072983;28;19913;-61
2022/02/04 18:03:02;;;;;;;;;;;20.00;41.20;;;;;;5072690;28;19916;-61
2022/02/04 18:07:53;;;;;;;;;;;19.90;41.20;;;;;;5072945;28;19909;-61
2022/02/04 18:10:19;;;;;;;;;;;19.90;41.20;;;;;;5073107;28;19908;-61
2022/02/04 18:12:45;;;;;;;;;;;19.90;41.20;;;;;;5072897;28;20011;-61
2022/02/04 18:15:10;;;;;;;;;;;19.90;41.20;;;;;;5072913;28;20345;-61
2022/02/04 18:17:36;;;;;;;;;;;19.90;41.20;;;;;;5071677;28;19916;-61
2022/02/04 18:20:02;;;;;;;;;;;19.90;41.20;;;;;;5072724;28;19909;-61
2022/02/04 18:22:28;;;;;;;;;;;19.90;41.10;;;;;;5072846;28;20406;-61
2022/02/04 18:24:53;;;;;;;;;;;19.90;41.20;;;;;;5073130;28;19909;-61
2022/02/04 18:27:19;;;;;;;;;;;20.00;41.10;;;;;;5054910;28;20344;-61
2022/02/04 18:29:52;;;;;;;;;;;19.90;41.10;;;;;;5072667;28;20336;-61
2022/02/04 18:32:19;;;;;;;;;;;19.90;41.10;;;;;;5073212;28;20255;-61
2022/02/04 18:34:44;;;;;;;;;;;19.90;41.10;;;;;;5054642;28;19916;-61
2022/02/04 18:37:10;;;;;;;;;;;19.90;41.10;;;;;;5072775;28;20348;-62
2022/02/04 18:44:54;;;;;;;;;;;19.90;41.00;;;;;;5072833;28;20067;-62
2022/02/04 18:50:03;;;;;;;;;;;19.90;41.00;;;;;;5073012;28;19908;-62
2022/02/04 18:52:57;;;;;;;;;;;19.90;41.00;;;;;;5072655;28;19913;-62
2022/02/04 18:55:43;;;;;;;;;;;19.90;41.00;;;;;;5072686;28;19917;-62
2022/02/04 18:58:10;;;;;;;;;;;19.90;41.00;;;;;;5072593;28;19960;-62
2022/02/04 19:00:36;;;;;;;;;;;19.90;41.00;;;;;;5073271;28;20352;-62
2022/02/04 19:03:05;;;;;;;;;;;19.90;41.00;;;;;;5076084;28;20011;-62
2022/02/04 19:05:36;;;;;;;;;;;19.90;41.00;;;;;;5076163;28;19916;-62
2022/02/04 19:08:08;;;;;;;;;;;19.90;41.00;;;;;;5076109;28;19909;-61
2022/02/04 19:10:36;;;;;;;;;;;19.90;40.90;;;;;;5076106;28;19966;-62
2022/02/04 19:13:10;;;;;;;;;;;20.00;41.00;;;;;;5075891;28;19915;-62
2022/02/04 19:16:01;;;;;;;;;;;19.90;41.00;;;;;;5076031;28;19971;-61
2022/02/04 19:21:10;;;;;;;;;;;19.90;40.90;;;;;;5075867;28;19908;-62
2022/02/04 19:23:38;;;;;;;;;;;19.90;40.90;;;;;;5074556;28;20302;-62
2022/02/04 19:26:13;;;;;;;;;;;19.90;40.90;;;;;;5075623;28;20288;-62
2022/02/04 19:28:38;;;;;;;;;;;19.90;40.90;;;;;;5075705;28;19952;-62
2022/02/04 19:31:04;;;;;;;;;;;19.90;40.80;;;;;;5075663;28;19948;-62
2022/02/04 19:33:29;;;;;;;;;;;19.90;40.80;;;;;;5075722;28;20343;-62
2022/02/04 19:35:55;;;;;;;;;;;19.90;40.80;;;;;;5075583;28;19916;-62
2022/02/04 19:38:21;;;;;;;;;;;19.90;40.80;;;;;;5075507;28;19909;-62
2022/02/04 19:40:46;;;;;;;;;;;19.90;40.80;;;;;;5075575;28;19915;-62
2022/02/04 19:43:15;;;;;;;;;;;19.90;40.80;;;;;;5057601;28;19909;-62
2022/02/04 19:45:48;;;;;;;;;;;19.90;40.80;;;;;;5075388;28;19975;-61
2022/02/04 19:48:30;;;;;;;;;;;19.90;40.80;;;;;;5075481;28;19915;-62
2022/02/04 20:25:46;;;;;;;;;;;19.80;40.60;;;;;;5075128;28;19916;-62
2022/02/04 20:28:14;;;;;;;;;;;19.80;40.60;;;;;;5074623;28;19908;-62
2022/02/04 20:30:40;;;;;;;;;;;19.90;40.60;;;;;;5074770;28;19916;-62
2022/02/04 20:33:05;;;;;;;;;;;19.90;40.60;;;;;;5074631;28;19909;-62
2022/02/04 20:35:31;;;;;;;;;;;19.90;40.60;;;;;;5074608;28;19917;-62
2022/02/04 20:37:57;;;;;;;;;;;19.90;40.60;;;;;;5074382;28;20001;-62
2022/02/04 20:40:28;;;;;;;;;;;19.80;40.60;;;;;;5074447;28;19946;-62
2022/02/04 20:42:54;;;;;;;;;;;19.90;40.60;;;;;;5074336;28;20279;-61
2022/02/04 20:45:20;;;;;;;;;;;19.80;40.60;;;;;;5074261;28;19915;-62
2022/02/04 20:47:47;;;;;;;;;;;19.80;40.60;;;;;;5074132;28;19914;-62
2022/02/04 20:50:13;;;;;;;;;;;19.80;40.50;;;;;;5074170;28;20302;-62